createdAt,value
2022-12-12T00:01:55.165Z,95850.88
2022-12-12T00:04:23.347Z,95848.22
2022-12-12T00:06:51.454Z,95851.16
2022-12-12T00:09:19.525Z,95850.09
2022-12-12T00:11:47.642Z,95855.72
2022-12-12T00:14:15.744Z,95857.06
2022-12-12T00:16:43.848Z,95858.91
2022-12-12T00:19:13.311Z,95849.84
2022-12-12T00:21:41.389Z,95853.72
2022-12-12T00:24:10.014Z,95846.03
2022-12-12T00:26:38.227Z,95844.38
2022-12-12T00:29:06.623Z,95846.69
2022-12-12T00:31:35.015Z,95842.25
2022-12-12T00:34:03.323Z,95847.22
2022-12-12T00:36:33.430Z,95844.63
2022-12-12T00:39:01.768Z,95841.69
2022-12-12T00:41:29.906Z,95846.88
2022-12-12T00:43:58.120Z,95852.09
2022-12-12T00:46:26.958Z,95854.16
2022-12-12T00:48:57.721Z,95861.13
2022-12-12T00:51:28.345Z,95861.22
2022-12-12T00:53:59.249Z,95856.59
2022-12-12T00:56:30.815Z,95852.72
2022-12-12T00:58:59.126Z,95863.78
2022-12-12T01:01:30.856Z,95854.34
2022-12-12T01:03:59.888Z,95855.66
2022-12-12T01:06:29.775Z,95861.84
2022-12-12T01:09:00.445Z,95854.22
2022-12-12T01:11:28.906Z,95860.97
2022-12-12T01:13:57.849Z,95858.56
2022-12-12T01:16:26.102Z,95865.06
2022-12-12T01:18:54.448Z,95856.69
2022-12-12T01:21:23.307Z,95859.09
2022-12-12T01:23:51.893Z,95862.16
2022-12-12T01:26:24.628Z,95861.53
2022-12-12T01:28:53.611Z,95864.66
2022-12-12T01:31:22.474Z,95868.75
2022-12-12T01:33:50.736Z,95870.34
2022-12-12T01:36:21.904Z,95867.47
2022-12-12T01:38:54.190Z,95866.88
2022-12-12T01:41:24.428Z,95866.88
2022-12-12T01:43:52.833Z,95870.72
2022-12-12T01:46:44.221Z,95876.78
2022-12-12T01:49:23.630Z,95873.38
2022-12-12T01:51:55.952Z,95872.19
2022-12-12T01:54:28.676Z,95878.91
2022-12-12T01:56:59.629Z,95875.22
2022-12-12T01:59:29.250Z,95870.84
2022-12-12T02:01:57.755Z,95874.13
2022-12-12T02:04:28.638Z,95877.94
2022-12-12T02:06:58.040Z,95879.19
2022-12-12T02:09:27.749Z,95878.63
2022-12-12T02:11:59.416Z,95872.34
2022-12-12T02:14:31.108Z,95871.38
2022-12-12T02:17:30.176Z,95867.88
2022-12-12T02:20:41.067Z,95867.28
2022-12-12T02:24:12.353Z,95871.81
2022-12-12T02:27:34.259Z,95879.31
2022-12-12T02:30:12.052Z,95885.72
2022-12-12T02:33:07.749Z,95880.72
2022-12-12T02:35:50.199Z,95882.19
2022-12-12T02:38:28.861Z,95877.72
2022-12-12T02:41:11.583Z,95881.91
2022-12-12T02:43:51.844Z,95891.34
2022-12-12T02:46:31.254Z,95882.31
2022-12-12T02:49:04.704Z,95890.41
2022-12-12T02:51:34.364Z,95889.47
2022-12-12T02:54:04.827Z,95889.19
2022-12-12T02:56:51.513Z,95885.84
2022-12-12T02:59:26.985Z,95890.38
2022-12-12T03:02:38.074Z,95886.97
2022-12-12T03:05:41.559Z,95881.34
2022-12-12T03:08:30.175Z,95883.81
2022-12-12T03:11:02.364Z,95881.38
2022-12-12T03:13:41.445Z,95884.28
2022-12-12T03:16:27.518Z,95878.38
2022-12-12T03:19:02.386Z,95880.47
2022-12-12T03:21:40.775Z,95887.06
2022-12-12T03:24:21.519Z,95892.22
2022-12-12T03:26:56.802Z,95889.19
2022-12-12T03:29:30.115Z,95885.00
2022-12-12T03:32:04.961Z,95889.09
2022-12-12T03:34:38.800Z,95885.06
2022-12-12T03:37:14.203Z,95886.53
2022-12-12T03:39:48.476Z,95886.22
2022-12-12T03:42:23.383Z,95885.13
2022-12-12T03:44:59.279Z,95887.91
2022-12-12T03:47:33.756Z,95880.94
2022-12-12T03:50:08.912Z,95894.22
2022-12-12T03:52:44.450Z,95894.22
2022-12-12T03:55:17.848Z,95898.41
2022-12-12T03:57:54.064Z,95901.75
2022-12-12T04:00:22.285Z,95896.13
2022-12-12T04:03:00.657Z,95899.38
2022-12-12T04:06:00.943Z,95895.34
2022-12-12T04:08:31.591Z,95895.88
2022-12-12T04:11:25.487Z,95899.09
2022-12-12T04:14:07.687Z,95895.72
2022-12-12T04:16:40.813Z,95903.13
2022-12-12T04:19:34.654Z,95897.66
2022-12-12T04:22:27.354Z,95902.00
2022-12-12T04:25:01.799Z,95911.88
2022-12-12T04:27:36.503Z,95911.06
2022-12-12T04:30:08.614Z,95915.44
2022-12-12T04:32:43.268Z,95909.16
2022-12-12T04:35:15.218Z,95919.03
2022-12-12T04:37:47.503Z,95917.38
2022-12-12T04:40:23.081Z,95922.56
2022-12-12T04:42:56.283Z,95923.53
2022-12-12T04:45:29.816Z,95923.84
2022-12-12T04:47:59.678Z,95932.75
2022-12-12T04:50:31.580Z,95927.72
2022-12-12T04:53:02.885Z,95929.34
2022-12-12T04:55:35.469Z,95927.56
2022-12-12T04:58:05.602Z,95923.84
2022-12-12T05:00:42.574Z,95927.72
2022-12-12T05:03:19.761Z,95923.22
2022-12-12T05:05:55.374Z,95930.97
2022-12-12T05:08:30.539Z,95927.09
2022-12-12T05:11:03.324Z,95930.31
2022-12-12T05:13:33.869Z,95926.75
2022-12-12T05:16:05.049Z,95933.56
2022-12-12T05:18:33.151Z,95936.94
2022-12-12T05:21:01.237Z,95934.72
2022-12-12T05:23:34.459Z,95932.28
2022-12-12T05:26:10.053Z,95935.66
2022-12-12T05:28:38.676Z,95941.50
2022-12-12T05:31:06.988Z,95940.50
2022-12-12T05:33:35.539Z,95943.56
2022-12-12T05:36:03.693Z,95951.03
2022-12-12T05:38:31.774Z,95945.53
2022-12-12T05:40:59.939Z,95940.50
2022-12-12T05:43:29.399Z,95946.50
2022-12-12T05:45:57.657Z,95948.75
2022-12-12T05:48:25.873Z,95942.94
2022-12-12T05:50:54.439Z,95936.94
2022-12-12T05:53:23.337Z,95945.84
2022-12-12T05:55:52.246Z,95946.97
2022-12-12T05:58:20.698Z,95943.91
2022-12-12T06:00:51.469Z,95951.53
2022-12-12T06:03:20.464Z,95951.53
2022-12-12T06:05:48.766Z,95950.38
2022-12-12T06:08:20.906Z,95960.91
2022-12-12T06:10:51.713Z,95967.06
2022-12-12T06:13:19.845Z,95957.66
2022-12-12T06:15:49.387Z,95960.59
2022-12-12T06:18:18.035Z,95959.75
2022-12-12T06:20:46.164Z,95960.75
2022-12-12T06:23:14.290Z,95959.59
2022-12-12T06:25:42.472Z,95967.38
2022-12-12T06:28:10.649Z,95968.81
2022-12-12T06:30:39.445Z,95966.53
2022-12-12T06:33:08.938Z,95960.22
2022-12-12T06:35:37.182Z,95966.53
2022-12-12T06:38:05.344Z,95966.22
2022-12-12T06:40:33.674Z,95964.28
2022-12-12T06:43:01.836Z,95968.66
2022-12-12T06:45:30.370Z,95965.09
2022-12-12T06:47:59.048Z,95963.78
2022-12-12T06:50:28.600Z,95973.00
2022-12-12T06:52:56.737Z,95969.94
2022-12-12T06:55:24.855Z,95976.41
2022-12-12T06:57:52.993Z,95980.97
2022-12-12T07:00:21.944Z,95979.81
2022-12-12T07:02:50.641Z,95983.72
2022-12-12T07:05:19.113Z,95987.25
2022-12-12T07:07:48.544Z,95985.94
2022-12-12T07:10:21.097Z,95986.78
2022-12-12T07:12:53.301Z,95990.19
2022-12-12T07:15:24.268Z,95985.63
2022-12-12T07:17:54.154Z,95990.00
2022-12-12T07:20:22.321Z,95988.38
2022-12-12T07:22:51.819Z,95981.13
2022-12-12T07:25:19.866Z,95991.28
2022-12-12T07:27:48.020Z,95983.88
2022-12-12T07:30:16.119Z,95988.88
2022-12-12T07:32:44.248Z,95988.88
2022-12-12T07:35:12.580Z,95989.84
2022-12-12T07:37:40.853Z,95992.94
2022-12-12T07:40:12.478Z,96003.59
2022-12-12T07:42:40.608Z,96002.31
2022-12-12T07:45:16.467Z,96007.63
2022-12-12T07:47:46.569Z,96009.41
2022-12-12T07:50:15.409Z,96011.22
2022-12-12T07:52:43.583Z,96010.69
2022-12-12T07:55:13.642Z,96010.72
2022-12-12T07:57:42.111Z,96013.47
2022-12-12T08:00:13.497Z,96020.28
2022-12-12T08:02:41.820Z,96018.50
2022-12-12T08:05:11.010Z,96019.78
2022-12-12T08:07:39.415Z,96021.88
2022-12-12T08:10:08.156Z,96027.06
2022-12-12T08:12:37.665Z,96018.31
2022-12-12T08:15:06.775Z,96029.16
2022-12-12T08:17:35.395Z,96036.63
2022-12-12T08:20:03.781Z,96037.09
2022-12-12T08:22:31.897Z,96042.91
2022-12-12T08:25:00.035Z,96048.59
2022-12-12T08:27:28.311Z,96050.88
2022-12-12T08:29:58.146Z,96045.16
2022-12-12T08:32:26.278Z,96046.47
2022-12-12T08:35:24.364Z,96050.34
2022-12-12T08:37:52.472Z,96045.50
2022-12-12T08:40:30.910Z,96054.25
2022-12-12T08:43:01.776Z,96048.44
2022-12-12T08:48:53.807Z,96042.59
2022-12-12T08:51:22.207Z,96047.13
2022-12-12T08:53:53.089Z,96044.19
2022-12-12T08:56:23.750Z,96051.34
2022-12-12T08:58:53.445Z,96053.59
2022-12-12T09:01:26.833Z,96051.97
2022-12-12T09:03:57.142Z,96046.47
2022-12-12T09:06:26.976Z,96056.34
2022-12-12T09:08:57.108Z,96054.88
2022-12-12T09:11:26.112Z,96066.22
2022-12-12T09:13:54.634Z,96063.63
2022-12-12T09:16:26.440Z,96062.97
2022-12-12T09:18:54.717Z,96067.50
2022-12-12T09:21:23.106Z,96068.97
2022-12-12T09:23:52.276Z,96072.03
2022-12-12T09:26:20.388Z,96072.50
2022-12-12T09:28:49.873Z,96071.38
2022-12-12T09:31:19.431Z,96075.59
2022-12-12T09:33:50.500Z,96077.34
2022-12-12T09:36:21.248Z,96081.25
2022-12-12T09:38:49.477Z,96083.69
2022-12-12T09:41:20.381Z,96076.19
2022-12-12T09:43:55.691Z,96075.38
2022-12-12T09:46:35.254Z,96068.75
2022-12-12T09:49:14.080Z,96074.41
2022-12-12T09:51:45.579Z,96063.88
2022-12-12T09:54:17.488Z,96065.47
2022-12-12T09:56:59.538Z,96070.81
2022-12-12T09:59:38.676Z,96058.97
2022-12-12T10:02:38.254Z,96064.22
2022-12-12T10:05:26.755Z,96067.06
2022-12-12T10:08:06.395Z,96076.41
2022-12-12T10:10:37.829Z,96067.03
2022-12-12T10:13:15.317Z,96061.84
2022-12-12T10:15:47.177Z,96062.59
2022-12-12T10:18:22.631Z,96060.78
2022-12-12T10:20:56.343Z,96070.00
2022-12-12T10:23:34.831Z,96064.47
2022-12-12T10:26:08.076Z,96060.75
2022-12-12T10:28:37.225Z,96058.28
2022-12-12T10:31:30.895Z,96067.69
2022-12-12T10:34:31.018Z,96066.56
2022-12-12T10:37:15.119Z,96063.38
2022-12-12T10:39:53.916Z,96066.56
2022-12-12T10:42:30.264Z,96060.69
2022-12-12T10:45:29.998Z,96054.19
2022-12-12T10:47:58.155Z,96056.63
2022-12-12T10:50:33.778Z,96055.78
2022-12-12T10:53:07.632Z,96053.63
2022-12-12T10:55:43.188Z,96055.25
2022-12-12T10:58:14.756Z,96046.34
2022-12-12T11:00:45.587Z,96056.84
2022-12-12T11:03:29.426Z,96056.31
2022-12-12T11:05:58.578Z,96053.81
2022-12-12T11:08:33.869Z,96057.81
2022-12-12T11:11:18.918Z,96054.91
2022-12-12T11:13:52.601Z,96051.44
2022-12-12T11:16:24.962Z,96050.97
2022-12-12T11:19:06.726Z,96050.38
2022-12-12T11:21:37.728Z,96043.00
2022-12-12T11:24:34.257Z,96046.53
2022-12-12T11:27:06.333Z,96043.94
2022-12-12T11:29:43.726Z,96044.16
2022-12-12T11:32:15.982Z,96040.13
2022-12-12T11:34:48.968Z,96039.97
2022-12-12T11:37:20.492Z,96038.00
2022-12-12T11:39:53.163Z,96033.78
2022-12-12T11:42:25.955Z,96034.34
2022-12-12T11:45:11.016Z,96032.19
2022-12-12T11:47:42.377Z,96027.69
2022-12-12T11:50:21.891Z,96028.22
2022-12-12T11:52:52.415Z,96026.28
2022-12-12T11:55:36.241Z,96018.66
2022-12-12T11:58:18.026Z,96021.69
2022-12-12T12:00:54.725Z,96026.00
2022-12-12T12:04:03.718Z,96013.00
2022-12-12T12:06:52.136Z,96009.22
2022-12-12T12:09:30.226Z,96006.97
2022-12-12T12:12:10.870Z,96009.28
2022-12-12T12:14:58.163Z,96004.78
2022-12-12T12:17:42.909Z,96010.19
2022-12-12T12:20:23.177Z,96002.66
2022-12-12T12:23:05.351Z,95995.72
2022-12-12T12:25:46.911Z,95997.78
2022-12-12T12:28:59.024Z,95996.97
2022-12-12T12:31:37.536Z,95997.41
2022-12-12T12:34:22.055Z,96005.03
2022-12-12T12:37:10.865Z,96002.31
2022-12-12T12:40:15.532Z,96005.19
2022-12-12T12:43:19.742Z,96000.53
2022-12-12T12:45:56.609Z,95995.59
2022-12-12T12:48:34.445Z,95996.22
2022-12-12T12:51:10.528Z,95988.41
2022-12-12T12:53:44.454Z,95991.09
2022-12-12T12:56:26.549Z,95985.00
2022-12-12T12:58:59.283Z,95984.69
2022-12-12T13:01:35.246Z,95987.34
2022-12-12T13:04:13.189Z,95981.91
2022-12-12T13:06:49.319Z,95986.94
2022-12-12T13:09:29.836Z,95985.69
2022-12-12T13:12:06.035Z,95988.03
2022-12-12T13:14:43.529Z,95983.63
2022-12-12T13:17:21.519Z,95979.84
2022-12-12T13:19:53.439Z,95977.81
2022-12-12T13:22:34.475Z,95980.41
2022-12-12T13:25:12.533Z,95975.63
2022-12-12T13:27:45.932Z,95974.75
2022-12-12T13:30:23.394Z,95975.75
2022-12-12T13:33:19.490Z,95974.56
2022-12-12T13:35:51.121Z,95979.91
2022-12-12T13:38:22.993Z,95971.25
2022-12-12T13:41:02.359Z,95977.81
2022-12-12T13:43:43.758Z,95969.84
2022-12-12T13:46:38.946Z,95966.25
2022-12-12T13:49:48.936Z,95956.41
2022-12-12T13:52:29.692Z,95954.34
2022-12-12T13:55:22.870Z,95953.53
2022-12-12T13:58:19.651Z,95953.78
2022-12-12T14:00:48.401Z,95958.53
2022-12-12T14:03:31.469Z,95970.59
2022-12-12T14:06:13.345Z,95965.75
2022-12-12T14:08:52.592Z,95972.56
2022-12-12T14:11:34.127Z,95967.59
2022-12-12T14:14:09.886Z,95970.41
2022-12-12T14:16:39.381Z,95973.19
2022-12-12T14:19:21.983Z,95971.91
2022-12-12T14:21:51.593Z,95969.47
2022-12-12T14:25:05.727Z,95969.84
2022-12-12T14:28:04.295Z,95975.50
2022-12-12T14:30:53.382Z,95969.69
2022-12-12T14:34:10.144Z,95966.38
2022-12-12T14:37:37.023Z,95962.47
2022-12-12T14:40:16.338Z,95964.75
2022-12-12T14:43:20.073Z,95964.16
2022-12-12T14:45:56.351Z,95958.97
2022-12-12T14:48:27.811Z,95954.41
2022-12-12T14:51:05.910Z,95953.69
2022-12-12T14:53:46.777Z,95947.69
2022-12-12T14:56:18.107Z,95950.31
2022-12-12T14:58:57.215Z,95949.84
2022-12-12T15:01:33.118Z,95944.56
2022-12-12T15:04:05.001Z,95956.13
2022-12-12T15:06:37.391Z,95955.06
2022-12-12T15:09:21.217Z,95957.00
2022-12-12T15:11:50.882Z,95960.78
2022-12-12T15:14:22.128Z,95967.72
2022-12-12T15:16:56.574Z,95983.31
2022-12-12T15:19:30.247Z,95982.84
2022-12-12T15:21:59.727Z,95988.31
2022-12-12T15:24:37.736Z,95979.63
2022-12-12T15:27:07.392Z,95985.72
2022-12-12T15:29:38.428Z,95982.13
2022-12-12T15:32:10.207Z,95982.75
2022-12-12T15:34:42.257Z,95979.25
2022-12-12T15:37:17.801Z,95980.59
2022-12-12T15:39:47.714Z,95982.72
2022-12-12T15:42:16.987Z,95977.97
2022-12-12T15:44:47.247Z,95974.69
2022-12-12T15:47:17.155Z,95970.34
2022-12-12T15:49:47.293Z,95971.34
2022-12-12T15:52:22.553Z,95976.06
2022-12-12T15:54:55.577Z,95974.13
2022-12-12T15:57:26.711Z,95970.88
2022-12-12T15:59:57.505Z,95977.63
2022-12-12T16:02:29.373Z,95971.59
2022-12-12T16:05:06.391Z,95972.59
2022-12-12T16:07:37.734Z,95978.47
2022-12-12T16:10:24.124Z,95972.19
2022-12-12T16:13:02.336Z,95971.78
2022-12-12T16:15:35.567Z,95966.31
2022-12-12T16:18:15.787Z,95969.06
2022-12-12T16:20:48.519Z,95978.94
2022-12-12T16:23:24.349Z,95972.28
2022-12-12T16:25:54.266Z,95981.97
2022-12-12T16:28:25.991Z,95979.53
2022-12-12T16:31:01.313Z,95991.78
2022-12-12T16:33:34.081Z,95990.81
2022-12-12T16:36:05.175Z,95994.19
2022-12-12T16:38:34.099Z,95995.47
2022-12-12T16:41:07.319Z,95998.59
2022-12-12T16:43:35.985Z,95996.84
2022-12-12T16:46:04.475Z,96000.91
2022-12-12T16:48:35.933Z,96002.31
2022-12-12T16:51:07.213Z,96002.97
2022-12-12T16:53:36.589Z,96005.75
2022-12-12T16:56:07.029Z,96001.06
2022-12-12T16:58:35.242Z,96008.56
2022-12-12T17:01:03.602Z,96008.28
2022-12-12T17:03:32.857Z,96003.00
2022-12-12T17:06:01.746Z,96006.91
2022-12-12T17:08:30.442Z,96002.56
2022-12-12T17:11:10.704Z,96003.84
2022-12-12T17:13:46.928Z,96011.13
2022-12-12T17:16:15.476Z,96011.72
2022-12-12T17:18:43.601Z,96002.50
2022-12-12T17:21:11.878Z,96009.69
2022-12-12T17:23:41.704Z,96003.66
2022-12-12T17:26:09.937Z,96000.66
2022-12-12T17:28:38.482Z,95998.41
2022-12-12T17:31:10.863Z,95993.84
2022-12-12T17:33:49.630Z,96000.66
2022-12-12T17:36:18.841Z,95999.22
2022-12-12T17:38:49.058Z,96001.34
2022-12-12T17:41:21.138Z,95989.69
2022-12-12T17:43:55.132Z,95993.59
2022-12-12T17:46:27.747Z,95997.53
2022-12-12T17:48:58.223Z,96000.00
2022-12-12T17:51:26.840Z,95994.97
2022-12-12T17:53:56.356Z,95993.38
2022-12-12T17:56:27.051Z,95993.53
2022-12-12T17:58:55.645Z,95995.47
2022-12-12T18:01:27.619Z,95991.25
2022-12-12T18:03:57.117Z,95983.81
2022-12-12T18:06:28.371Z,95992.47
2022-12-12T18:08:56.832Z,95991.59
2022-12-12T18:11:27.801Z,96003.50
2022-12-12T18:13:57.822Z,96001.09
2022-12-12T18:16:30.829Z,96003.38
2022-12-12T18:18:59.601Z,95997.41
2022-12-12T18:24:20.984Z,95997.13
2022-12-12T18:26:53.849Z,96008.31
2022-12-12T18:29:22.695Z,96004.28
2022-12-12T18:31:52.893Z,96000.25
2022-12-12T18:34:21.561Z,95999.41
2022-12-12T18:36:50.318Z,96001.38
2022-12-12T18:39:19.202Z,95989.72
2022-12-12T18:41:48.591Z,95998.81
2022-12-12T18:44:17.356Z,95993.63
2022-12-12T18:46:46.013Z,95997.84
2022-12-12T18:49:18.218Z,95994.97
2022-12-12T18:51:48.085Z,95999.50
2022-12-12T18:54:17.546Z,95998.53
2022-12-12T18:56:47.497Z,95993.84
2022-12-12T18:59:17.327Z,95995.78
2022-12-12T19:01:45.844Z,95994.66
2022-12-12T19:04:22.696Z,95993.22
2022-12-12T19:06:53.332Z,95999.38
2022-12-12T19:09:22.457Z,95993.53
2022-12-12T19:11:55.587Z,95988.19
2022-12-12T19:14:45.883Z,95994.38
2022-12-12T19:17:25.388Z,95991.31
2022-12-12T19:19:56.005Z,95986.91
2022-12-12T19:22:44.509Z,95991.31
2022-12-12T19:25:13.482Z,95989.19
2022-12-12T19:27:42.214Z,95993.69
2022-12-12T19:30:13.558Z,95987.56
2022-12-12T19:32:43.230Z,95982.72
2022-12-12T19:35:12.945Z,95984.84
2022-12-12T19:37:41.307Z,95979.81
2022-12-12T19:40:12.103Z,95983.34
2022-12-12T19:42:41.128Z,95981.56
2022-12-12T19:45:11.029Z,95980.59
2022-12-12T19:47:39.340Z,95972.16
2022-12-12T19:50:08.238Z,95976.88
2022-12-12T19:52:37.920Z,95978.63
2022-12-12T19:55:07.534Z,95981.38
2022-12-12T19:57:35.839Z,95975.91
2022-12-12T20:00:04.866Z,95982.38
2022-12-12T20:02:37.856Z,95982.22
2022-12-12T20:05:06.938Z,95975.41
2022-12-12T20:07:35.329Z,95970.25
2022-12-12T20:10:05.899Z,95977.06
2022-12-12T20:12:34.288Z,95973.16
2022-12-12T20:15:04.103Z,95970.09
2022-12-12T20:17:32.402Z,95968.16
2022-12-12T20:20:00.724Z,95975.94
2022-12-12T20:22:29.004Z,95978.53
2022-12-12T20:24:57.318Z,95989.03
2022-12-12T20:27:28.820Z,95982.88
2022-12-12T20:29:57.280Z,95979.16
2022-12-12T20:32:25.896Z,95975.94
2022-12-12T20:34:54.128Z,95979.16
2022-12-12T20:37:22.416Z,95980.13
2022-12-12T20:39:50.800Z,95979.00
2022-12-12T20:42:18.903Z,95980.75
2022-12-12T20:44:49.911Z,95977.38
2022-12-12T20:47:18.257Z,95982.06
2022-12-12T20:49:48.226Z,95978.53
2022-12-12T20:52:16.318Z,95971.09
2022-12-12T20:54:44.428Z,95979.00
2022-12-12T20:57:12.536Z,95977.72
2022-12-12T20:59:40.625Z,95973.84
2022-12-12T21:02:12.416Z,95971.41
2022-12-12T21:04:40.778Z,95967.69
2022-12-12T21:07:09.541Z,95978.19
2022-12-12T21:09:37.879Z,95974.81
2022-12-12T21:12:06.470Z,95969.94
2022-12-12T21:14:36.985Z,95973.00
2022-12-12T21:17:05.229Z,95972.53
2022-12-12T21:19:35.761Z,95970.91
2022-12-12T21:22:05.504Z,95966.50
2022-12-12T21:24:33.621Z,95958.44
2022-12-12T21:27:01.700Z,95958.28
2022-12-12T21:29:29.816Z,95957.97
2022-12-12T21:31:57.979Z,95954.88
2022-12-12T21:34:26.131Z,95960.38
2022-12-12T21:36:56.878Z,95957.63
2022-12-12T21:39:27.668Z,95956.00
2022-12-12T21:41:55.844Z,95953.56
2022-12-12T21:44:24.251Z,95963.09
2022-12-12T21:46:53.198Z,95962.72
2022-12-12T21:49:26.285Z,95957.88
2022-12-12T21:51:59.067Z,95959.63
2022-12-12T21:54:29.048Z,95956.53
2022-12-12T21:56:57.911Z,95956.66
2022-12-12T21:59:27.011Z,95951.50
2022-12-12T22:01:56.638Z,95956.19
2022-12-12T22:04:25.487Z,95959.53
2022-12-12T22:06:53.904Z,95958.22
2022-12-12T22:09:23.658Z,95950.91
2022-12-12T22:11:52.465Z,95955.31
2022-12-12T22:14:32.312Z,95951.88
2022-12-12T22:17:01.885Z,95956.91
2022-12-12T22:19:30.120Z,95960.28
2022-12-12T22:21:58.267Z,95953.00
2022-12-12T22:24:27.678Z,95945.41
2022-12-12T22:26:55.787Z,95952.50
2022-12-12T22:29:23.952Z,95953.50
2022-12-12T22:31:52.487Z,95955.41
2022-12-12T22:34:23.774Z,95948.78
2022-12-12T22:36:53.608Z,95949.94
2022-12-12T22:39:24.260Z,95944.91
2022-12-12T22:41:54.696Z,95948.78
2022-12-12T22:44:25.199Z,95942.84
2022-12-12T22:46:55.679Z,95938.47
2022-12-12T22:49:26.633Z,95937.00
2022-12-12T22:51:56.400Z,95940.75
2022-12-12T22:54:25.014Z,95937.19
2022-12-12T22:56:54.743Z,95938.97
2022-12-12T22:59:25.325Z,95932.81
2022-12-12T23:02:00.536Z,95932.97
2022-12-12T23:04:28.680Z,95933.28
2022-12-12T23:06:56.835Z,95934.16
2022-12-12T23:09:26.962Z,95932.03
2022-12-12T23:11:57.602Z,95918.81
2022-12-12T23:14:27.202Z,95916.22
2022-12-12T23:16:56.244Z,95919.47
2022-12-12T23:19:26.182Z,95910.44
2022-12-12T23:21:54.446Z,95907.16
2022-12-12T23:24:22.601Z,95901.66
2022-12-12T23:26:52.706Z,95902.91
2022-12-12T23:29:22.330Z,95896.44
2022-12-12T23:31:50.516Z,95903.81
2022-12-12T23:34:23.084Z,95895.72
2022-12-12T23:36:54.932Z,95897.16
2022-12-12T23:39:24.361Z,95892.16
2022-12-12T23:41:52.840Z,95894.03
2022-12-12T23:44:24.598Z,95890.78
2022-12-12T23:46:52.843Z,95892.97
2022-12-12T23:49:23.908Z,95890.25
2022-12-12T23:51:54.619Z,95889.00
2022-12-12T23:54:26.751Z,95885.97
2022-12-12T23:56:56.030Z,95889.81
2022-12-12T23:59:27.502Z,95886.59
